sensor_id;sensor_type;location;lat;lon;timestamp;temperature;humidity
69543;SHT31;56762;49.494;11.768;2023-05-10T00:01:32;12.67;68.29
69543;SHT31;56762;49.494;11.768;2023-05-10T00:04:00;12.69;67.84
69543;SHT31;56762;49.494;11.768;2023-05-10T00:06:29;12.68;67.24
69543;SHT31;56762;49.494;11.768;2023-05-10T00:08:57;12.65;66.99
69543;SHT31;56762;49.494;11.768;2023-05-10T00:11:26;12.64;67.15
69543;SHT31;56762;49.494;11.768;2023-05-10T00:13:54;12.62;67.55
69543;SHT31;56762;49.494;11.768;2023-05-10T00:16:22;12.62;68.16
69543;SHT31;56762;49.494;11.768;2023-05-10T00:18:52;12.59;67.35
69543;SHT31;56762;49.494;11.768;2023-05-10T00:21:19;12.57;67.66
69543;SHT31;56762;49.494;11.768;2023-05-10T00:23:47;12.55;67.99
69543;SHT31;56762;49.494;11.768;2023-05-10T00:26:15;12.55;67.94
69543;SHT31;56762;49.494;11.768;2023-05-10T00:28:44;12.55;68.30
69543;SHT31;56762;49.494;11.768;2023-05-10T00:31:12;12.52;68.12
69543;SHT31;56762;49.494;11.768;2023-05-10T00:33:41;12.48;68.79
69543;SHT31;56762;49.494;11.768;2023-05-10T00:36:10;12.49;68.75
69543;SHT31;56762;49.494;11.768;2023-05-10T00:38:38;12.47;68.80
69543;SHT31;56762;49.494;11.768;2023-05-10T00:41:07;12.47;68.30
69543;SHT31;56762;49.494;11.768;2023-05-10T00:43:35;12.44;69.16
69543;SHT31;56762;49.494;11.768;2023-05-10T00:46:03;12.45;69.12
69543;SHT31;56762;49.494;11.768;2023-05-10T00:48:32;12.45;70.38
69543;SHT31;56762;49.494;11.768;2023-05-10T00:51:01;12.38;70.58
69543;SHT31;56762;49.494;11.768;2023-05-10T00:53:31;12.37;71.38
69543;SHT31;56762;49.494;11.768;2023-05-10T00:56:00;12.36;70.97
69543;SHT31;56762;49.494;11.768;2023-05-10T00:58:29;12.34;70.79
69543;SHT31;56762;49.494;11.768;2023-05-10T01:00:58;12.34;71.78
69543;SHT31;56762;49.494;11.768;2023-05-10T01:03:26;12.31;71.56
69543;SHT31;56762;49.494;11.768;2023-05-10T01:05:54;12.33;72.26
69543;SHT31;56762;49.494;11.768;2023-05-10T01:08:22;12.34;71.35
69543;SHT31;56762;49.494;11.768;2023-05-10T01:10:51;12.33;70.21
69543;SHT31;56762;49.494;11.768;2023-05-10T01:13:30;12.36;70.86
69543;SHT31;56762;49.494;11.768;2023-05-10T01:15:59;12.33;69.99
69543;SHT31;56762;49.494;11.768;2023-05-10T01:18:30;12.34;71.45
69543;SHT31;56762;49.494;11.768;2023-05-10T01:21:11;12.37;72.05
69543;SHT31;56762;49.494;11.768;2023-05-10T01:27:20;12.40;71.49
69543;SHT31;56762;49.494;11.768;2023-05-10T01:30:08;12.38;71.67
69543;SHT31;56762;49.494;11.768;2023-05-10T01:32:53;12.40;71.30
69543;SHT31;56762;49.494;11.768;2023-05-10T01:35:34;12.38;71.37
69543;SHT31;56762;49.494;11.768;2023-05-10T01:38:11;12.41;72.81
69543;SHT31;56762;49.494;11.768;2023-05-10T01:40:48;12.40;73.07
69543;SHT31;56762;49.494;11.768;2023-05-10T01:43:23;12.41;73.22
69543;SHT31;56762;49.494;11.768;2023-05-10T01:45:59;12.42;72.92
69543;SHT31;56762;49.494;11.768;2023-05-10T01:48:32;12.44;72.56
69543;SHT31;56762;49.494;11.768;2023-05-10T01:51:01;12.44;72.90
69543;SHT31;56762;49.494;11.768;2023-05-10T01:53:31;12.44;72.73
69543;SHT31;56762;49.494;11.768;2023-05-10T01:56:01;12.48;70.92
69543;SHT31;56762;49.494;11.768;2023-05-10T01:58:32;12.48;71.80
69543;SHT31;56762;49.494;11.768;2023-05-10T02:01:03;12.48;71.66
69543;SHT31;56762;49.494;11.768;2023-05-10T02:03:35;12.48;71.37
69543;SHT31;56762;49.494;11.768;2023-05-10T02:06:05;12.48;70.84
69543;SHT31;56762;49.494;11.768;2023-05-10T02:08:35;12.47;72.13
69543;SHT31;56762;49.494;11.768;2023-05-10T02:11:04;12.47;72.15
69543;SHT31;56762;49.494;11.768;2023-05-10T02:13:34;12.44;73.72
69543;SHT31;56762;49.494;11.768;2023-05-10T02:16:05;12.42;73.69
69543;SHT31;56762;49.494;11.768;2023-05-10T02:18:35;12.40;73.82
69543;SHT31;56762;49.494;11.768;2023-05-10T02:21:04;12.38;73.12
69543;SHT31;56762;49.494;11.768;2023-05-10T02:23:32;12.40;73.70
69543;SHT31;56762;49.494;11.768;2023-05-10T02:26:02;12.40;74.36
69543;SHT31;56762;49.494;11.768;2023-05-10T02:28:32;12.38;73.78
69543;SHT31;56762;49.494;11.768;2023-05-10T02:31:02;12.37;73.92
69543;SHT31;56762;49.494;11.768;2023-05-10T02:33:31;12.37;74.50
69543;SHT31;56762;49.494;11.768;2023-05-10T02:36:02;12.37;73.33
69543;SHT31;56762;49.494;11.768;2023-05-10T02:38:31;12.40;73.40
69543;SHT31;56762;49.494;11.768;2023-05-10T02:41:01;12.40;73.22
69543;SHT31;56762;49.494;11.768;2023-05-10T02:43:30;12.40;73.07
69543;SHT31;56762;49.494;11.768;2023-05-10T02:46:00;12.40;73.41
69543;SHT31;56762;49.494;11.768;2023-05-10T02:48:28;12.40;73.78
69543;SHT31;56762;49.494;11.768;2023-05-10T02:51:00;12.41;72.36
69543;SHT31;56762;49.494;11.768;2023-05-10T02:53:31;12.45;72.01
69543;SHT31;56762;49.494;11.768;2023-05-10T02:56:04;12.41;72.25
69543;SHT31;56762;49.494;11.768;2023-05-10T02:58:33;12.41;73.31
69543;SHT31;56762;49.494;11.768;2023-05-10T03:01:02;12.41;73.42
69543;SHT31;56762;49.494;11.768;2023-05-10T03:03:30;12.40;73.21
69543;SHT31;56762;49.494;11.768;2023-05-10T03:05:58;12.38;72.53
69543;SHT31;56762;49.494;11.768;2023-05-10T03:08:26;12.41;72.05
69543;SHT31;56762;49.494;11.768;2023-05-10T03:11:06;12.42;71.62
69543;SHT31;56762;49.494;11.768;2023-05-10T03:13:45;12.41;71.17
69543;SHT31;56762;49.494;11.768;2023-05-10T03:16:24;12.44;70.60
69543;SHT31;56762;49.494;11.768;2023-05-10T03:19:02;12.44;70.77
69543;SHT31;56762;49.494;11.768;2023-05-10T03:21:35;12.44;71.46
69543;SHT31;56762;49.494;11.768;2023-05-10T03:24:08;12.44;71.30
69543;SHT31;56762;49.494;11.768;2023-05-10T03:26:40;12.47;71.19
69543;SHT31;56762;49.494;11.768;2023-05-10T03:29:08;12.42;71.12
69543;SHT31;56762;49.494;11.768;2023-05-10T03:31:38;12.47;71.48
69543;SHT31;56762;49.494;11.768;2023-05-10T03:34:07;12.45;71.57
69543;SHT31;56762;49.494;11.768;2023-05-10T03:36:35;12.45;72.03
69543;SHT31;56762;49.494;11.768;2023-05-10T03:39:05;12.45;74.73
69543;SHT31;56762;49.494;11.768;2023-05-10T03:41:33;12.44;75.81
69543;SHT31;56762;49.494;11.768;2023-05-10T03:44:03;12.38;74.74
69543;SHT31;56762;49.494;11.768;2023-05-10T03:46:31;12.36;75.86
69543;SHT31;56762;49.494;11.768;2023-05-10T03:48:59;12.34;76.03
69543;SHT31;56762;49.494;11.768;2023-05-10T03:51:27;12.33;76.90
69543;SHT31;56762;49.494;11.768;2023-05-10T03:53:55;12.28;77.31
69543;SHT31;56762;49.494;11.768;2023-05-10T03:56:23;12.28;77.16
69543;SHT31;56762;49.494;11.768;2023-05-10T03:58:52;12.26;76.78
69543;SHT31;56762;49.494;11.768;2023-05-10T04:01:21;12.23;77.79
69543;SHT31;56762;49.494;11.768;2023-05-10T04:03:49;12.18;78.94
69543;SHT31;56762;49.494;11.768;2023-05-10T04:06:17;12.16;79.30
69543;SHT31;56762;49.494;11.768;2023-05-10T04:08:45;12.14;79.92
69543;SHT31;56762;49.494;11.768;2023-05-10T04:11:13;12.10;81.05
69543;SHT31;56762;49.494;11.768;2023-05-10T04:13:41;12.10;81.31
69543;SHT31;56762;49.494;11.768;2023-05-10T04:16:09;12.06;81.04
69543;SHT31;56762;49.494;11.768;2023-05-10T04:18:38;12.06;81.27
69543;SHT31;56762;49.494;11.768;2023-05-10T04:21:11;12.03;81.01
69543;SHT31;56762;49.494;11.768;2023-05-10T04:23:39;12.00;80.02
69543;SHT31;56762;49.494;11.768;2023-05-10T04:26:07;11.97;80.85
69543;SHT31;56762;49.494;11.768;2023-05-10T04:28:34;11.93;81.43
69543;SHT31;56762;49.494;11.768;2023-05-10T04:31:03;11.93;81.28
69543;SHT31;56762;49.494;11.768;2023-05-10T04:33:31;11.93;81.30
69543;SHT31;56762;49.494;11.768;2023-05-10T04:36:01;11.93;82.57
69543;SHT31;56762;49.494;11.768;2023-05-10T04:38:29;11.85;83.02
69543;SHT31;56762;49.494;11.768;2023-05-10T04:41:03;11.86;82.30
69543;SHT31;56762;49.494;11.768;2023-05-10T04:43:31;11.77;83.34
69543;SHT31;56762;49.494;11.768;2023-05-10T04:45:59;11.76;83.28
69543;SHT31;56762;49.494;11.768;2023-05-10T04:48:27;11.73;84.25
69543;SHT31;56762;49.494;11.768;2023-05-10T04:50:55;11.72;84.94
69543;SHT31;56762;49.494;11.768;2023-05-10T04:53:24;11.70;85.18
69543;SHT31;56762;49.494;11.768;2023-05-10T04:55:52;11.69;85.13
69543;SHT31;56762;49.494;11.768;2023-05-10T04:58:20;11.68;85.74
69543;SHT31;56762;49.494;11.768;2023-05-10T05:00:48;11.66;85.59
69543;SHT31;56762;49.494;11.768;2023-05-10T05:03:16;11.65;85.00
69543;SHT31;56762;49.494;11.768;2023-05-10T05:05:44;11.62;85.63
69543;SHT31;56762;49.494;11.768;2023-05-10T05:08:12;11.62;85.84
69543;SHT31;56762;49.494;11.768;2023-05-10T05:10:41;11.59;86.14
69543;SHT31;56762;49.494;11.768;2023-05-10T05:13:09;11.62;86.52
69543;SHT31;56762;49.494;11.768;2023-05-10T05:15:37;11.61;86.98
69543;SHT31;56762;49.494;11.768;2023-05-10T05:18:05;11.62;86.86
69543;SHT31;56762;49.494;11.768;2023-05-10T05:20:33;11.65;86.68
69543;SHT31;56762;49.494;11.768;2023-05-10T05:23:01;11.68;86.60
69543;SHT31;56762;49.494;11.768;2023-05-10T05:25:29;11.66;86.66
69543;SHT31;56762;49.494;11.768;2023-05-10T05:27:58;11.66;86.60
69543;SHT31;56762;49.494;11.768;2023-05-10T05:30:26;11.63;85.73
69543;SHT31;56762;49.494;11.768;2023-05-10T05:32:54;11.63;86.46
69543;SHT31;56762;49.494;11.768;2023-05-10T05:35:22;11.62;86.84
69543;SHT31;56762;49.494;11.768;2023-05-10T05:37:50;11.66;86.62
69543;SHT31;56762;49.494;11.768;2023-05-10T05:40:18;11.65;86.33
69543;SHT31;56762;49.494;11.768;2023-05-10T05:42:46;11.63;86.39
69543;SHT31;56762;49.494;11.768;2023-05-10T05:45:16;11.61;86.28
69543;SHT31;56762;49.494;11.768;2023-05-10T05:47:44;11.65;86.76
69543;SHT31;56762;49.494;11.768;2023-05-10T05:50:12;11.66;87.37
69543;SHT31;56762;49.494;11.768;2023-05-10T05:52:40;11.70;86.85
69543;SHT31;56762;49.494;11.768;2023-05-10T05:55:08;11.70;87.22
69543;SHT31;56762;49.494;11.768;2023-05-10T05:57:36;11.73;87.01
69543;SHT31;56762;49.494;11.768;2023-05-10T06:00:05;11.76;86.86
69543;SHT31;56762;49.494;11.768;2023-05-10T06:02:35;11.80;86.51
69543;SHT31;56762;49.494;11.768;2023-05-10T06:05:04;11.82;86.93
69543;SHT31;56762;49.494;11.768;2023-05-10T06:07:31;11.83;86.63
69543;SHT31;56762;49.494;11.768;2023-05-10T06:10:00;11.91;87.26
69543;SHT31;56762;49.494;11.768;2023-05-10T06:12:28;11.91;87.07
69543;SHT31;56762;49.494;11.768;2023-05-10T06:14:56;11.91;86.85
69543;SHT31;56762;49.494;11.768;2023-05-10T06:17:23;11.96;87.17
69543;SHT31;56762;49.494;11.768;2023-05-10T06:19:53;12.00;86.86
69543;SHT31;56762;49.494;11.768;2023-05-10T06:22:21;12.03;86.62
69543;SHT31;56762;49.494;11.768;2023-05-10T06:24:49;12.03;86.83
69543;SHT31;56762;49.494;11.768;2023-05-10T06:27:17;12.06;87.03
69543;SHT31;56762;49.494;11.768;2023-05-10T06:29:44;12.04;87.11
69543;SHT31;56762;49.494;11.768;2023-05-10T06:32:14;12.04;87.74
69543;SHT31;56762;49.494;11.768;2023-05-10T06:34:42;12.13;87.07
69543;SHT31;56762;49.494;11.768;2023-05-10T06:37:12;12.14;86.31
69543;SHT31;56762;49.494;11.768;2023-05-10T06:39:40;12.20;86.95
69543;SHT31;56762;49.494;11.768;2023-05-10T06:42:08;12.27;86.43
69543;SHT31;56762;49.494;11.768;2023-05-10T06:44:35;12.24;86.66
69543;SHT31;56762;49.494;11.768;2023-05-10T06:47:03;12.24;87.75
69543;SHT31;56762;49.494;11.768;2023-05-10T06:49:31;12.26;87.17
69543;SHT31;56762;49.494;11.768;2023-05-10T06:51:59;12.24;87.20
69543;SHT31;56762;49.494;11.768;2023-05-10T06:54:28;12.23;87.06
69543;SHT31;56762;49.494;11.768;2023-05-10T06:56:55;12.23;87.45
69543;SHT31;56762;49.494;11.768;2023-05-10T06:59:23;12.28;87.49
69543;SHT31;56762;49.494;11.768;2023-05-10T07:01:51;12.31;87.31
69543;SHT31;56762;49.494;11.768;2023-05-10T07:04:20;12.40;87.59
69543;SHT31;56762;49.494;11.768;2023-05-10T07:06:48;12.47;87.18
69543;SHT31;56762;49.494;11.768;2023-05-10T07:09:17;12.58;86.98
69543;SHT31;56762;49.494;11.768;2023-05-10T07:11:47;12.67;86.87
69543;SHT31;56762;49.494;11.768;2023-05-10T07:14:15;12.69;86.55
69543;SHT31;56762;49.494;11.768;2023-05-10T07:16:42;12.78;87.16
69543;SHT31;56762;49.494;11.768;2023-05-10T07:19:11;12.89;87.57
69543;SHT31;56762;49.494;11.768;2023-05-10T07:21:38;13.02;86.75
69543;SHT31;56762;49.494;11.768;2023-05-10T07:24:09;13.09;85.82
69543;SHT31;56762;49.494;11.768;2023-05-10T07:26:37;13.13;86.37
69543;SHT31;56762;49.494;11.768;2023-05-10T07:29:06;13.26;86.62
69543;SHT31;56762;49.494;11.768;2023-05-10T07:31:34;13.35;86.67
69543;SHT31;56762;49.494;11.768;2023-05-10T07:34:02;13.44;86.27
69543;SHT31;56762;49.494;11.768;2023-05-10T07:36:30;13.50;86.37
69543;SHT31;56762;49.494;11.768;2023-05-10T07:38:58;13.49;86.05
69543;SHT31;56762;49.494;11.768;2023-05-10T07:41:27;13.50;86.35
69543;SHT31;56762;49.494;11.768;2023-05-10T07:43:54;13.57;86.71
69543;SHT31;56762;49.494;11.768;2023-05-10T07:46:24;13.57;86.90
69543;SHT31;56762;49.494;11.768;2023-05-10T07:48:52;13.58;86.73
69543;SHT31;56762;49.494;11.768;2023-05-10T07:51:20;13.61;86.59
69543;SHT31;56762;49.494;11.768;2023-05-10T07:53:48;13.61;86.46
69543;SHT31;56762;49.494;11.768;2023-05-10T07:56:20;13.58;85.87
69543;SHT31;56762;49.494;11.768;2023-05-10T07:58:48;13.54;86.27
69543;SHT31;56762;49.494;11.768;2023-05-10T08:01:16;13.51;86.51
69543;SHT31;56762;49.494;11.768;2023-05-10T08:03:45;13.49;86.27
69543;SHT31;56762;49.494;11.768;2023-05-10T08:06:13;13.50;86.52
69543;SHT31;56762;49.494;11.768;2023-05-10T08:08:41;13.53;86.97
69543;SHT31;56762;49.494;11.768;2023-05-10T08:11:10;13.50;86.10
69543;SHT31;56762;49.494;11.768;2023-05-10T08:13:37;13.56;86.99
69543;SHT31;56762;49.494;11.768;2023-05-10T08:16:05;13.70;86.81
69543;SHT31;56762;49.494;11.768;2023-05-10T08:18:33;13.78;86.60
69543;SHT31;56762;49.494;11.768;2023-05-10T08:21:03;13.95;86.68
69543;SHT31;56762;49.494;11.768;2023-05-10T08:23:31;14.15;85.86
69543;SHT31;56762;49.494;11.768;2023-05-10T08:25:59;14.38;85.49
69543;SHT31;56762;49.494;11.768;2023-05-10T08:28:27;14.60;84.24
69543;SHT31;56762;49.494;11.768;2023-05-10T08:30:55;14.79;82.08
69543;SHT31;56762;49.494;11.768;2023-05-10T08:33:23;14.98;80.30
69543;SHT31;56762;49.494;11.768;2023-05-10T08:35:52;15.03;79.87
69543;SHT31;56762;49.494;11.768;2023-05-10T08:38:21;15.16;80.26
69543;SHT31;56762;49.494;11.768;2023-05-10T08:40:54;15.20;79.78
69543;SHT31;56762;49.494;11.768;2023-05-10T08:43:26;15.17;78.60
69543;SHT31;56762;49.494;11.768;2023-05-10T08:45:55;15.30;80.20
69543;SHT31;56762;49.494;11.768;2023-05-10T08:48:24;15.31;78.16
69543;SHT31;56762;49.494;11.768;2023-05-10T08:50:53;15.30;78.59
69543;SHT31;56762;49.494;11.768;2023-05-10T08:53:24;15.26;79.96
69543;SHT31;56762;49.494;11.768;2023-05-10T08:55:55;15.20;79.10
69543;SHT31;56762;49.494;11.768;2023-05-10T08:58:23;15.10;78.14
69543;SHT31;56762;49.494;11.768;2023-05-10T09:00:51;15.06;79.28
69543;SHT31;56762;49.494;11.768;2023-05-10T09:03:22;15.01;79.47
69543;SHT31;56762;49.494;11.768;2023-05-10T09:05:50;14.89;80.06
69543;SHT31;56762;49.494;11.768;2023-05-10T09:08:19;14.81;80.26
69543;SHT31;56762;49.494;11.768;2023-05-10T09:10:49;14.72;79.86
69543;SHT31;56762;49.494;11.768;2023-05-10T09:13:18;14.69;79.27
69543;SHT31;56762;49.494;11.768;2023-05-10T09:15:47;14.69;80.10
69543;SHT31;56762;49.494;11.768;2023-05-10T09:18:15;14.72;79.48
69543;SHT31;56762;49.494;11.768;2023-05-10T09:20:43;14.80;79.28
69543;SHT31;56762;49.494;11.768;2023-05-10T09:23:11;14.87;79.51
69543;SHT31;56762;49.494;11.768;2023-05-10T09:25:41;15.01;78.74
69543;SHT31;56762;49.494;11.768;2023-05-10T09:28:11;15.10;79.05
69543;SHT31;56762;49.494;11.768;2023-05-10T09:30:39;15.10;78.65
69543;SHT31;56762;49.494;11.768;2023-05-10T09:33:07;15.06;78.39
69543;SHT31;56762;49.494;11.768;2023-05-10T09:35:35;15.03;78.30
69543;SHT31;56762;49.494;11.768;2023-05-10T09:38:04;14.94;78.61
69543;SHT31;56762;49.494;11.768;2023-05-10T09:40:34;14.93;78.90
69543;SHT31;56762;49.494;11.768;2023-05-10T09:43:07;14.96;79.26
69543;SHT31;56762;49.494;11.768;2023-05-10T09:45:41;14.96;78.65
69543;SHT31;56762;49.494;11.768;2023-05-10T09:48:09;15.00;78.30
69543;SHT31;56762;49.494;11.768;2023-05-10T09:50:41;15.06;78.03
69543;SHT31;56762;49.494;11.768;2023-05-10T09:53:14;15.14;77.83
69543;SHT31;56762;49.494;11.768;2023-05-10T09:55:44;15.28;77.25
69543;SHT31;56762;49.494;11.768;2023-05-10T09:58:13;15.45;76.93
69543;SHT31;56762;49.494;11.768;2023-05-10T10:00:44;15.63;76.23
69543;SHT31;56762;49.494;11.768;2023-05-10T10:03:16;15.82;75.73
69543;SHT31;56762;49.494;11.768;2023-05-10T10:05:46;15.95;75.13
69543;SHT31;56762;49.494;11.768;2023-05-10T10:08:15;16.05;74.38
69543;SHT31;56762;49.494;11.768;2023-05-10T10:10:46;16.12;74.68
69543;SHT31;56762;49.494;11.768;2023-05-10T10:13:17;16.06;74.23
69543;SHT31;56762;49.494;11.768;2023-05-10T10:15:46;15.98;73.29
69543;SHT31;56762;49.494;11.768;2023-05-10T10:18:17;15.86;75.00
69543;SHT31;56762;49.494;11.768;2023-05-10T10:20:50;15.65;74.96
69543;SHT31;56762;49.494;11.768;2023-05-10T10:23:18;15.57;74.82
69543;SHT31;56762;49.494;11.768;2023-05-10T10:25:46;15.59;75.90
69543;SHT31;56762;49.494;11.768;2023-05-10T10:28:35;15.72;75.94
69543;SHT31;56762;49.494;11.768;2023-05-10T10:31:17;15.90;76.23
69543;SHT31;56762;49.494;11.768;2023-05-10T10:33:56;16.13;75.72
69543;SHT31;56762;49.494;11.768;2023-05-10T10:36:27;16.24;75.01
69543;SHT31;56762;49.494;11.768;2023-05-10T10:38:57;16.17;73.60
69543;SHT31;56762;49.494;11.768;2023-05-10T10:41:29;16.20;73.39
69543;SHT31;56762;49.494;11.768;2023-05-10T10:44:23;16.26;74.43
69543;SHT31;56762;49.494;11.768;2023-05-10T10:47:22;16.36;73.69
69543;SHT31;56762;49.494;11.768;2023-05-10T10:50:04;16.43;71.61
69543;SHT31;56762;49.494;11.768;2023-05-10T10:52:33;16.48;71.14
69543;SHT31;56762;49.494;11.768;2023-05-10T10:55:03;16.56;72.13
69543;SHT31;56762;49.494;11.768;2023-05-10T10:57:42;16.46;72.34
69543;SHT31;56762;49.494;11.768;2023-05-10T11:00:25;16.29;71.65
69543;SHT31;56762;49.494;11.768;2023-05-10T11:02:58;16.09;71.86
69543;SHT31;56762;49.494;11.768;2023-05-10T11:05:37;15.88;72.15
69543;SHT31;56762;49.494;11.768;2023-05-10T11:08:16;15.65;73.89
69543;SHT31;56762;49.494;11.768;2023-05-10T11:11:08;15.30;78.10
69543;SHT31;56762;49.494;11.768;2023-05-10T11:13:40;15.16;80.50
69543;SHT31;56762;49.494;11.768;2023-05-10T11:16:16;14.91;82.17
69543;SHT31;56762;49.494;11.768;2023-05-10T11:18:58;14.91;83.35
69543;SHT31;56762;49.494;11.768;2023-05-10T11:21:26;14.96;83.84
69543;SHT31;56762;49.494;11.768;2023-05-10T11:23:55;15.00;83.96
69543;SHT31;56762;49.494;11.768;2023-05-10T11:26:25;15.10;82.47
69543;SHT31;56762;49.494;11.768;2023-05-10T11:29:00;15.12;80.85
69543;SHT31;56762;49.494;11.768;2023-05-10T11:31:31;15.18;80.11
69543;SHT31;56762;49.494;11.768;2023-05-10T11:34:01;15.28;80.92
69543;SHT31;56762;49.494;11.768;2023-05-10T11:36:33;15.39;80.69
69543;SHT31;56762;49.494;11.768;2023-05-10T11:39:03;15.51;81.09
69543;SHT31;56762;49.494;11.768;2023-05-10T11:41:32;15.54;79.75
69543;SHT31;56762;49.494;11.768;2023-05-10T11:44:09;15.66;80.34
69543;SHT31;56762;49.494;11.768;2023-05-10T11:46:37;15.69;78.75
69543;SHT31;56762;49.494;11.768;2023-05-10T11:49:07;15.81;78.41
69543;SHT31;56762;49.494;11.768;2023-05-10T11:51:35;15.96;79.20
69543;SHT31;56762;49.494;11.768;2023-05-10T11:54:06;16.05;77.23
69543;SHT31;56762;49.494;11.768;2023-05-10T11:56:36;16.16;77.74
69543;SHT31;56762;49.494;11.768;2023-05-10T11:59:09;16.20;76.59
69543;SHT31;56762;49.494;11.768;2023-05-10T12:01:44;16.20;77.22
69543;SHT31;56762;49.494;11.768;2023-05-10T12:04:14;16.26;76.97
69543;SHT31;56762;49.494;11.768;2023-05-10T12:06:43;16.30;77.52
69543;SHT31;56762;49.494;11.768;2023-05-10T12:09:14;16.39;75.98
69543;SHT31;56762;49.494;11.768;2023-05-10T12:11:48;16.46;76.54
69543;SHT31;56762;49.494;11.768;2023-05-10T12:14:17;16.46;77.62
69543;SHT31;56762;49.494;11.768;2023-05-10T12:16:47;16.47;76.93
69543;SHT31;56762;49.494;11.768;2023-05-10T12:19:40;16.47;77.24
69543;SHT31;56762;49.494;11.768;2023-05-10T12:22:12;16.43;77.50
69543;SHT31;56762;49.494;11.768;2023-05-10T12:24:45;16.33;76.75
69543;SHT31;56762;49.494;11.768;2023-05-10T12:27:14;16.21;77.69
69543;SHT31;56762;49.494;11.768;2023-05-10T12:29:43;16.17;77.34
69543;SHT31;56762;49.494;11.768;2023-05-10T12:32:16;16.06;77.08
69543;SHT31;56762;49.494;11.768;2023-05-10T12:34:46;16.06;77.34
69543;SHT31;56762;49.494;11.768;2023-05-10T12:37:14;16.00;76.48
69543;SHT31;56762;49.494;11.768;2023-05-10T12:39:43;15.99;76.39
69543;SHT31;56762;49.494;11.768;2023-05-10T12:42:12;15.98;76.02
69543;SHT31;56762;49.494;11.768;2023-05-10T12:44:41;15.99;75.46
69543;SHT31;56762;49.494;11.768;2023-05-10T12:47:09;16.05;75.63
69543;SHT31;56762;49.494;11.768;2023-05-10T12:49:38;16.10;76.41
69543;SHT31;56762;49.494;11.768;2023-05-10T12:52:10;16.09;74.69
69543;SHT31;56762;49.494;11.768;2023-05-10T12:54:43;16.13;73.59
69543;SHT31;56762;49.494;11.768;2023-05-10T12:57:11;16.17;74.13
69543;SHT31;56762;49.494;11.768;2023-05-10T12:59:40;16.13;72.36
69543;SHT31;56762;49.494;11.768;2023-05-10T13:02:08;16.26;71.34
69543;SHT31;56762;49.494;11.768;2023-05-10T13:04:36;16.17;72.55
69543;SHT31;56762;49.494;11.768;2023-05-10T13:07:06;16.14;73.42
69543;SHT31;56762;49.494;11.768;2023-05-10T13:09:35;16.19;71.97
69543;SHT31;56762;49.494;11.768;2023-05-10T13:12:03;16.16;72.77
69543;SHT31;56762;49.494;11.768;2023-05-10T13:14:34;16.12;75.79
69543;SHT31;56762;49.494;11.768;2023-05-10T13:17:02;16.02;74.91
69543;SHT31;56762;49.494;11.768;2023-05-10T13:19:30;15.93;73.86
69543;SHT31;56762;49.494;11.768;2023-05-10T13:21:58;15.81;75.01
69543;SHT31;56762;49.494;11.768;2023-05-10T13:24:27;15.77;76.01
69543;SHT31;56762;49.494;11.768;2023-05-10T13:26:58;15.77;76.48
69543;SHT31;56762;49.494;11.768;2023-05-10T13:29:28;15.73;76.88
69543;SHT31;56762;49.494;11.768;2023-05-10T13:31:57;15.63;78.64
69543;SHT31;56762;49.494;11.768;2023-05-10T13:34:25;15.65;79.81
69543;SHT31;56762;49.494;11.768;2023-05-10T13:36:53;15.55;77.23
69543;SHT31;56762;49.494;11.768;2023-05-10T13:39:22;15.54;77.52
69543;SHT31;56762;49.494;11.768;2023-05-10T13:41:51;15.51;77.83
69543;SHT31;56762;49.494;11.768;2023-05-10T13:44:22;15.52;77.92
69543;SHT31;56762;49.494;11.768;2023-05-10T13:46:50;15.47;77.11
69543;SHT31;56762;49.494;11.768;2023-05-10T13:49:18;15.45;77.47
69543;SHT31;56762;49.494;11.768;2023-05-10T13:51:47;15.42;77.94
69543;SHT31;56762;49.494;11.768;2023-05-10T13:54:15;15.41;79.30
69543;SHT31;56762;49.494;11.768;2023-05-10T13:56:46;15.42;79.60
69543;SHT31;56762;49.494;11.768;2023-05-10T13:59:15;15.41;79.94
69543;SHT31;56762;49.494;11.768;2023-05-10T14:01:44;15.38;80.60
69543;SHT31;56762;49.494;11.768;2023-05-10T14:04:12;15.41;81.33
69543;SHT31;56762;49.494;11.768;2023-05-10T14:06:40;15.41;80.74
69543;SHT31;56762;49.494;11.768;2023-05-10T14:09:08;15.41;80.87
69543;SHT31;56762;49.494;11.768;2023-05-10T14:11:36;15.32;80.13
69543;SHT31;56762;49.494;11.768;2023-05-10T14:14:08;15.28;79.62
69543;SHT31;56762;49.494;11.768;2023-05-10T14:16:36;15.21;79.43
69543;SHT31;56762;49.494;11.768;2023-05-10T14:19:06;15.16;79.61
69543;SHT31;56762;49.494;11.768;2023-05-10T14:21:34;15.14;79.32
69543;SHT31;56762;49.494;11.768;2023-05-10T14:24:02;15.12;76.90
69543;SHT31;56762;49.494;11.768;2023-05-10T14:26:32;15.07;77.23
69543;SHT31;56762;49.494;11.768;2023-05-10T14:29:00;15.06;77.00
69543;SHT31;56762;49.494;11.768;2023-05-10T14:31:28;14.98;77.55
69543;SHT31;56762;49.494;11.768;2023-05-10T14:33:57;14.91;78.37
69543;SHT31;56762;49.494;11.768;2023-05-10T14:36:27;14.96;79.17
69543;SHT31;56762;49.494;11.768;2023-05-10T14:38:55;14.91;78.99
69543;SHT31;56762;49.494;11.768;2023-05-10T14:41:24;14.94;78.80
69543;SHT31;56762;49.494;11.768;2023-05-10T14:43:53;14.96;78.76
69543;SHT31;56762;49.494;11.768;2023-05-10T14:46:21;14.96;78.69
69543;SHT31;56762;49.494;11.768;2023-05-10T14:48:48;14.96;77.99
69543;SHT31;56762;49.494;11.768;2023-05-10T14:51:16;14.91;78.74
69543;SHT31;56762;49.494;11.768;2023-05-10T14:53:50;14.90;79.16
69543;SHT31;56762;49.494;11.768;2023-05-10T14:56:18;14.94;78.07
69543;SHT31;56762;49.494;11.768;2023-05-10T14:58:47;14.89;78.23
69543;SHT31;56762;49.494;11.768;2023-05-10T15:01:15;14.90;78.89
69543;SHT31;56762;49.494;11.768;2023-05-10T15:03:43;14.89;79.13
69543;SHT31;56762;49.494;11.768;2023-05-10T15:06:13;14.86;79.62
69543;SHT31;56762;49.494;11.768;2023-05-10T15:08:41;14.86;78.00
69543;SHT31;56762;49.494;11.768;2023-05-10T15:11:11;14.83;79.51
69543;SHT31;56762;49.494;11.768;2023-05-10T15:13:39;14.84;79.03
69543;SHT31;56762;49.494;11.768;2023-05-10T15:16:06;14.84;80.04
69543;SHT31;56762;49.494;11.768;2023-05-10T15:18:34;14.87;81.55
69543;SHT31;56762;49.494;11.768;2023-05-10T15:21:02;14.86;82.22
69543;SHT31;56762;49.494;11.768;2023-05-10T15:23:30;14.87;81.06
69543;SHT31;56762;49.494;11.768;2023-05-10T15:25:58;14.84;81.72
69543;SHT31;56762;49.494;11.768;2023-05-10T15:28:27;14.86;82.36
69543;SHT31;56762;49.494;11.768;2023-05-10T15:30:56;14.84;81.65
69543;SHT31;56762;49.494;11.768;2023-05-10T15:33:24;14.83;81.68
69543;SHT31;56762;49.494;11.768;2023-05-10T15:35:54;14.80;81.99